sensor_id;sensor_type;location;lat;lon;timestamp;P1;durP1;ratioP1;P2;durP2;ratioP2
52470;SDS011;38382;53.160;7.026;2023-03-01T00:01:29;27.45;;;13.57;;
52470;SDS011;38382;53.160;7.026;2023-03-01T00:03:56;25.95;;;14.20;;
52470;SDS011;38382;53.160;7.026;2023-03-01T00:06:23;26.15;;;14.88;;
52470;SDS011;38382;53.160;7.026;2023-03-01T00:08:49;26.05;;;14.80;;
52470;SDS011;38382;53.160;7.026;2023-03-01T00:11:15;24.27;;;14.52;;
52470;SDS011;38382;53.160;7.026;2023-03-01T00:13:45;22.48;;;13.52;;
52470;SDS011;38382;53.160;7.026;2023-03-01T00:16:16;23.42;;;13.43;;
52470;SDS011;38382;53.160;7.026;2023-03-01T00:18:44;24.73;;;14.23;;
52470;SDS011;38382;53.160;7.026;2023-03-01T00:21:10;26.20;;;14.50;;
52470;SDS011;38382;53.160;7.026;2023-03-01T00:23:36;25.85;;;13.95;;
52470;SDS011;38382;53.160;7.026;2023-03-01T00:26:05;27.42;;;14.57;;
52470;SDS011;38382;53.160;7.026;2023-03-01T00:28:33;25.02;;;13.88;;
52470;SDS011;38382;53.160;7.026;2023-03-01T00:31:06;27.00;;;15.38;;
52470;SDS011;38382;53.160;7.026;2023-03-01T00:33:33;27.63;;;15.07;;
52470;SDS011;38382;53.160;7.026;2023-03-01T00:35:59;27.52;;;14.45;;
52470;SDS011;38382;53.160;7.026;2023-03-01T00:38:25;26.85;;;14.70;;
52470;SDS011;38382;53.160;7.026;2023-03-01T00:40:51;26.45;;;15.15;;
52470;SDS011;38382;53.160;7.026;2023-03-01T00:43:17;28.55;;;15.02;;
52470;SDS011;38382;53.160;7.026;2023-03-01T00:45:44;25.65;;;14.45;;
52470;SDS011;38382;53.160;7.026;2023-03-01T00:48:10;24.77;;;14.02;;
52470;SDS011;38382;53.160;7.026;2023-03-01T00:50:36;26.52;;;15.00;;
52470;SDS011;38382;53.160;7.026;2023-03-01T00:53:01;27.27;;;15.52;;
52470;SDS011;38382;53.160;7.026;2023-03-01T00:55:27;27.23;;;15.70;;
52470;SDS011;38382;53.160;7.026;2023-03-01T00:57:53;26.27;;;14.88;;
52470;SDS011;38382;53.160;7.026;2023-03-01T01:00:19;26.52;;;14.93;;
52470;SDS011;38382;53.160;7.026;2023-03-01T01:02:45;24.92;;;14.20;;
52470;SDS011;38382;53.160;7.026;2023-03-01T01:05:11;25.58;;;15.02;;
52470;SDS011;38382;53.160;7.026;2023-03-01T01:07:37;28.73;;;15.25;;
52470;SDS011;38382;53.160;7.026;2023-03-01T01:10:03;25.02;;;13.57;;
52470;SDS011;38382;53.160;7.026;2023-03-01T01:12:30;24.75;;;13.45;;
52470;SDS011;38382;53.160;7.026;2023-03-01T01:14:56;27.67;;;14.98;;
52470;SDS011;38382;53.160;7.026;2023-03-01T01:17:22;24.67;;;13.40;;
52470;SDS011;38382;53.160;7.026;2023-03-01T01:19:48;23.63;;;13.63;;
52470;SDS011;38382;53.160;7.026;2023-03-01T01:22:14;26.23;;;14.88;;
52470;SDS011;38382;53.160;7.026;2023-03-01T01:24:39;30.50;;;16.33;;
52470;SDS011;38382;53.160;7.026;2023-03-01T01:27:05;27.63;;;14.35;;
52470;SDS011;38382;53.160;7.026;2023-03-01T01:29:32;27.75;;;14.52;;
52470;SDS011;38382;53.160;7.026;2023-03-01T01:31:58;27.25;;;15.48;;
52470;SDS011;38382;53.160;7.026;2023-03-01T01:34:24;26.55;;;14.38;;
52470;SDS011;38382;53.160;7.026;2023-03-01T01:36:53;26.25;;;14.82;;
52470;SDS011;38382;53.160;7.026;2023-03-01T01:39:19;26.75;;;14.15;;
52470;SDS011;38382;53.160;7.026;2023-03-01T01:41:46;28.40;;;15.30;;
52470;SDS011;38382;53.160;7.026;2023-03-01T01:49:37;28.00;;;15.82;;
52470;SDS011;38382;53.160;7.026;2023-03-01T01:52:04;27.92;;;15.77;;
52470;SDS011;38382;53.160;7.026;2023-03-01T01:54:38;24.55;;;14.23;;
52470;SDS011;38382;53.160;7.026;2023-03-01T01:57:07;26.48;;;15.20;;
52470;SDS011;38382;53.160;7.026;2023-03-01T01:59:38;24.20;;;14.93;;
52470;SDS011;38382;53.160;7.026;2023-03-01T02:02:08;26.15;;;14.43;;
52470;SDS011;38382;53.160;7.026;2023-03-01T02:04:34;27.65;;;14.77;;
52470;SDS011;38382;53.160;7.026;2023-03-01T02:07:02;29.45;;;15.38;;
52470;SDS011;38382;53.160;7.026;2023-03-01T02:09:41;25.42;;;14.13;;
52470;SDS011;38382;53.160;7.026;2023-03-01T02:12:11;27.40;;;15.00;;
52470;SDS011;38382;53.160;7.026;2023-03-01T02:14:39;29.73;;;16.50;;
52470;SDS011;38382;53.160;7.026;2023-03-01T02:17:04;30.15;;;16.20;;
52470;SDS011;38382;53.160;7.026;2023-03-01T02:19:40;31.17;;;16.25;;
52470;SDS011;38382;53.160;7.026;2023-03-01T02:22:13;31.52;;;16.08;;
52470;SDS011;38382;53.160;7.026;2023-03-01T02:27:38;30.80;;;16.13;;
52470;SDS011;38382;53.160;7.026;2023-03-01T02:30:28;28.50;;;15.43;;
52470;SDS011;38382;53.160;7.026;2023-03-01T02:32:56;24.48;;;13.90;;
52470;SDS011;38382;53.160;7.026;2023-03-01T02:35:37;26.73;;;15.02;;
52470;SDS011;38382;53.160;7.026;2023-03-01T02:38:06;28.85;;;14.95;;
52470;SDS011;38382;53.160;7.026;2023-03-01T02:40:34;32.30;;;15.82;;
52470;SDS011;38382;53.160;7.026;2023-03-01T02:43:03;33.65;;;14.63;;
52470;SDS011;38382;53.160;7.026;2023-03-01T02:45:33;28.50;;;15.88;;
52470;SDS011;38382;53.160;7.026;2023-03-01T02:47:59;30.80;;;15.15;;
52470;SDS011;38382;53.160;7.026;2023-03-01T02:55:28;31.38;;;15.80;;
52470;SDS011;38382;53.160;7.026;2023-03-01T02:57:54;28.55;;;16.23;;
52470;SDS011;38382;53.160;7.026;2023-03-01T03:00:23;34.83;;;18.17;;
52470;SDS011;38382;53.160;7.026;2023-03-01T03:02:53;29.45;;;16.23;;
52470;SDS011;38382;53.160;7.026;2023-03-01T03:05:23;31.48;;;15.93;;
52470;SDS011;38382;53.160;7.026;2023-03-01T03:07:51;30.17;;;16.63;;
52470;SDS011;38382;53.160;7.026;2023-03-01T03:10:18;29.17;;;14.50;;
52470;SDS011;38382;53.160;7.026;2023-03-01T03:12:50;31.23;;;15.40;;
52470;SDS011;38382;53.160;7.026;2023-03-01T03:15:17;30.80;;;16.65;;
52470;SDS011;38382;53.160;7.026;2023-03-01T03:17:43;26.25;;;15.15;;
52470;SDS011;38382;53.160;7.026;2023-03-01T03:20:10;33.28;;;15.90;;
52470;SDS011;38382;53.160;7.026;2023-03-01T03:22:38;31.40;;;15.68;;
52470;SDS011;38382;53.160;7.026;2023-03-01T03:25:05;32.22;;;15.82;;
52470;SDS011;38382;53.160;7.026;2023-03-01T03:27:41;31.50;;;16.17;;
52470;SDS011;38382;53.160;7.026;2023-03-01T03:30:10;28.73;;;15.75;;
52470;SDS011;38382;53.160;7.026;2023-03-01T03:32:38;28.98;;;15.85;;
52470;SDS011;38382;53.160;7.026;2023-03-01T03:35:05;30.20;;;15.43;;
52470;SDS011;38382;53.160;7.026;2023-03-01T03:37:37;29.27;;;15.38;;
52470;SDS011;38382;53.160;7.026;2023-03-01T03:40:24;30.42;;;15.75;;
52470;SDS011;38382;53.160;7.026;2023-03-01T03:42:50;31.38;;;15.38;;
52470;SDS011;38382;53.160;7.026;2023-03-01T03:45:16;31.13;;;16.20;;
52470;SDS011;38382;53.160;7.026;2023-03-01T03:47:43;31.02;;;15.95;;
52470;SDS011;38382;53.160;7.026;2023-03-01T03:50:10;32.20;;;16.08;;
52470;SDS011;38382;53.160;7.026;2023-03-01T03:52:37;29.95;;;16.42;;
52470;SDS011;38382;53.160;7.026;2023-03-01T03:55:03;28.48;;;16.00;;
52470;SDS011;38382;53.160;7.026;2023-03-01T03:57:34;29.30;;;16.50;;
52470;SDS011;38382;53.160;7.026;2023-03-01T04:00:00;30.88;;;15.73;;
52470;SDS011;38382;53.160;7.026;2023-03-01T04:02:29;29.95;;;15.32;;
52470;SDS011;38382;53.160;7.026;2023-03-01T04:04:55;27.27;;;15.13;;
52470;SDS011;38382;53.160;7.026;2023-03-01T04:07:21;27.35;;;15.05;;
52470;SDS011;38382;53.160;7.026;2023-03-01T04:09:46;28.08;;;14.90;;
52470;SDS011;38382;53.160;7.026;2023-03-01T04:12:12;25.23;;;14.40;;
52470;SDS011;38382;53.160;7.026;2023-03-01T04:14:38;27.85;;;14.75;;
52470;SDS011;38382;53.160;7.026;2023-03-01T04:17:04;29.20;;;14.85;;
52470;SDS011;38382;53.160;7.026;2023-03-01T04:19:31;26.90;;;14.60;;
52470;SDS011;38382;53.160;7.026;2023-03-01T04:22:04;31.10;;;15.85;;
52470;SDS011;38382;53.160;7.026;2023-03-01T04:24:37;30.85;;;15.75;;
52470;SDS011;38382;53.160;7.026;2023-03-01T04:27:03;30.98;;;16.48;;
52470;SDS011;38382;53.160;7.026;2023-03-01T04:29:29;27.92;;;15.18;;
52470;SDS011;38382;53.160;7.026;2023-03-01T04:31:54;30.75;;;16.02;;
52470;SDS011;38382;53.160;7.026;2023-03-01T04:34:20;33.30;;;17.38;;
52470;SDS011;38382;53.160;7.026;2023-03-01T04:36:46;30.15;;;16.35;;
52470;SDS011;38382;53.160;7.026;2023-03-01T04:39:12;29.17;;;15.38;;
52470;SDS011;38382;53.160;7.026;2023-03-01T04:41:38;29.65;;;15.68;;
52470;SDS011;38382;53.160;7.026;2023-03-01T04:44:04;35.05;;;17.33;;
52470;SDS011;38382;53.160;7.026;2023-03-01T04:46:30;32.45;;;17.48;;
52470;SDS011;38382;53.160;7.026;2023-03-01T04:48:56;33.55;;;16.63;;
52470;SDS011;38382;53.160;7.026;2023-03-01T04:51:22;32.20;;;16.52;;
52470;SDS011;38382;53.160;7.026;2023-03-01T04:53:48;29.00;;;16.35;;
52470;SDS011;38382;53.160;7.026;2023-03-01T04:56:14;31.70;;;16.30;;
52470;SDS011;38382;53.160;7.026;2023-03-01T04:58:41;35.90;;;18.13;;
52470;SDS011;38382;53.160;7.026;2023-03-01T05:01:14;34.25;;;18.02;;
52470;SDS011;38382;53.160;7.026;2023-03-01T05:03:46;32.92;;;18.10;;
52470;SDS011;38382;53.160;7.026;2023-03-01T05:06:13;32.78;;;16.77;;
52470;SDS011;38382;53.160;7.026;2023-03-01T05:08:40;30.67;;;16.92;;
52470;SDS011;38382;53.160;7.026;2023-03-01T05:11:07;30.52;;;15.90;;
52470;SDS011;38382;53.160;7.026;2023-03-01T05:13:34;34.67;;;17.00;;
52470;SDS011;38382;53.160;7.026;2023-03-01T05:16:02;33.38;;;17.65;;
52470;SDS011;38382;53.160;7.026;2023-03-01T05:18:30;31.23;;;17.42;;
52470;SDS011;38382;53.160;7.026;2023-03-01T05:21:30;32.45;;;17.83;;
52470;SDS011;38382;53.160;7.026;2023-03-01T05:23:49;37.10;;;18.48;;
52470;SDS011;38382;53.160;7.026;2023-03-01T05:26:15;31.17;;;16.90;;
52470;SDS011;38382;53.160;7.026;2023-03-01T05:28:43;36.25;;;19.38;;
52470;SDS011;38382;53.160;7.026;2023-03-01T05:31:09;34.13;;;17.67;;
52470;SDS011;38382;53.160;7.026;2023-03-01T05:33:38;34.47;;;17.70;;
52470;SDS011;38382;53.160;7.026;2023-03-01T05:36:11;36.33;;;18.10;;
52470;SDS011;38382;53.160;7.026;2023-03-01T05:38:37;33.33;;;18.23;;
52470;SDS011;38382;53.160;7.026;2023-03-01T05:41:02;34.70;;;18.20;;
52470;SDS011;38382;53.160;7.026;2023-03-01T05:43:31;37.83;;;19.17;;
52470;SDS011;38382;53.160;7.026;2023-03-01T05:46:00;33.92;;;17.42;;
52470;SDS011;38382;53.160;7.026;2023-03-01T05:48:26;35.75;;;19.30;;
52470;SDS011;38382;53.160;7.026;2023-03-01T05:50:51;36.40;;;18.85;;
52470;SDS011;38382;53.160;7.026;2023-03-01T05:53:18;38.78;;;20.60;;
52470;SDS011;38382;53.160;7.026;2023-03-01T05:55:48;38.28;;;20.23;;
52470;SDS011;38382;53.160;7.026;2023-03-01T05:58:16;37.58;;;20.27;;
52470;SDS011;38382;53.160;7.026;2023-03-01T06:00:44;39.85;;;20.35;;
52470;SDS011;38382;53.160;7.026;2023-03-01T06:03:13;37.72;;;20.42;;
52470;SDS011;38382;53.160;7.026;2023-03-01T06:05:41;40.28;;;20.88;;
52470;SDS011;38382;53.160;7.026;2023-03-01T06:08:08;37.33;;;19.52;;
52470;SDS011;38382;53.160;7.026;2023-03-01T06:10:35;33.97;;;17.45;;
52470;SDS011;38382;53.160;7.026;2023-03-01T06:13:01;35.78;;;19.48;;
52470;SDS011;38382;53.160;7.026;2023-03-01T06:15:27;35.28;;;19.33;;
52470;SDS011;38382;53.160;7.026;2023-03-01T06:17:53;34.95;;;18.50;;
52470;SDS011;38382;53.160;7.026;2023-03-01T06:20:23;36.05;;;19.33;;
52470;SDS011;38382;53.160;7.026;2023-03-01T06:22:51;38.83;;;21.13;;
52470;SDS011;38382;53.160;7.026;2023-03-01T06:25:18;35.00;;;19.23;;
52470;SDS011;38382;53.160;7.026;2023-03-01T06:27:45;37.22;;;19.00;;
52470;SDS011;38382;53.160;7.026;2023-03-01T06:30:14;36.33;;;19.67;;
52470;SDS011;38382;53.160;7.026;2023-03-01T06:32:42;37.00;;;20.27;;
52470;SDS011;38382;53.160;7.026;2023-03-01T06:35:12;38.15;;;19.15;;
52470;SDS011;38382;53.160;7.026;2023-03-01T06:37:40;32.85;;;18.77;;
52470;SDS011;38382;53.160;7.026;2023-03-01T06:40:06;42.83;;;19.05;;
52470;SDS011;38382;53.160;7.026;2023-03-01T06:42:36;37.10;;;20.10;;
52470;SDS011;38382;53.160;7.026;2023-03-01T06:45:03;38.05;;;20.65;;
52470;SDS011;38382;53.160;7.026;2023-03-01T06:47:31;40.80;;;20.52;;
52470;SDS011;38382;53.160;7.026;2023-03-01T06:49:58;46.97;;;22.48;;
52470;SDS011;38382;53.160;7.026;2023-03-01T06:52:24;40.42;;;20.45;;
52470;SDS011;38382;53.160;7.026;2023-03-01T06:54:50;47.38;;;21.50;;
52470;SDS011;38382;53.160;7.026;2023-03-01T06:57:16;53.00;;;21.48;;
52470;SDS011;38382;53.160;7.026;2023-03-01T06:59:42;49.08;;;22.13;;
52470;SDS011;38382;53.160;7.026;2023-03-01T07:02:11;55.53;;;22.02;;
52470;SDS011;38382;53.160;7.026;2023-03-01T07:04:38;59.75;;;22.35;;
52470;SDS011;38382;53.160;7.026;2023-03-01T07:07:04;67.70;;;21.27;;
52470;SDS011;38382;53.160;7.026;2023-03-01T07:09:30;48.97;;;21.42;;
52470;SDS011;38382;53.160;7.026;2023-03-01T07:11:56;76.30;;;21.20;;
52470;SDS011;38382;53.160;7.026;2023-03-01T07:14:22;76.57;;;21.30;;
52470;SDS011;38382;53.160;7.026;2023-03-01T07:16:52;73.35;;;21.77;;
52470;SDS011;38382;53.160;7.026;2023-03-01T07:19:18;60.42;;;21.88;;
52470;SDS011;38382;53.160;7.026;2023-03-01T07:21:44;37.22;;;20.42;;
52470;SDS011;38382;53.160;7.026;2023-03-01T07:24:10;68.97;;;21.08;;
52470;SDS011;38382;53.160;7.026;2023-03-01T07:26:36;37.25;;;20.13;;
52470;SDS011;38382;53.160;7.026;2023-03-01T07:29:05;83.32;;;23.40;;
52470;SDS011;38382;53.160;7.026;2023-03-01T07:31:32;53.95;;;22.58;;
52470;SDS011;38382;53.160;7.026;2023-03-01T07:33:58;59.03;;;23.10;;
52470;SDS011;38382;53.160;7.026;2023-03-01T07:36:24;217.65;;;30.05;;
52470;SDS011;38382;53.160;7.026;2023-03-01T07:38:50;60.83;;;22.45;;
52470;SDS011;38382;53.160;7.026;2023-03-01T07:41:16;114.95;;;24.17;;
52470;SDS011;38382;53.160;7.026;2023-03-01T07:43:42;63.17;;;22.08;;
52470;SDS011;38382;53.160;7.026;2023-03-01T07:46:08;162.30;;;26.23;;
52470;SDS011;38382;53.160;7.026;2023-03-01T07:48:34;60.35;;;23.10;;
52470;SDS011;38382;53.160;7.026;2023-03-01T07:51:00;149.75;;;30.05;;
52470;SDS011;38382;53.160;7.026;2023-03-01T07:53:27;174.43;;;30.55;;
52470;SDS011;38382;53.160;7.026;2023-03-01T07:56:06;131.32;;;26.92;;
52470;SDS011;38382;53.160;7.026;2023-03-01T07:58:34;121.50;;;26.92;;
52470;SDS011;38382;53.160;7.026;2023-03-01T08:01:02;175.13;;;28.30;;
52470;SDS011;38382;53.160;7.026;2023-03-01T08:03:28;288.60;;;36.28;;
52470;SDS011;38382;53.160;7.026;2023-03-01T08:05:55;363.63;;;35.65;;
52470;SDS011;38382;53.160;7.026;2023-03-01T08:08:21;387.77;;;36.45;;
52470;SDS011;38382;53.160;7.026;2023-03-01T08:10:46;314.65;;;32.38;;
52470;SDS011;38382;53.160;7.026;2023-03-01T08:13:12;252.55;;;28.85;;
52470;SDS011;38382;53.160;7.026;2023-03-01T08:15:38;207.02;;;27.75;;
52470;SDS011;38382;53.160;7.026;2023-03-01T08:18:03;165.90;;;26.13;;
52470;SDS011;38382;53.160;7.026;2023-03-01T08:20:29;198.23;;;26.70;;
52470;SDS011;38382;53.160;7.026;2023-03-01T08:22:55;294.73;;;28.65;;
52470;SDS011;38382;53.160;7.026;2023-03-01T08:25:23;154.30;;;24.00;;
52470;SDS011;38382;53.160;7.026;2023-03-01T08:27:49;257.23;;;31.27;;
52470;SDS011;38382;53.160;7.026;2023-03-01T08:30:14;189.55;;;27.23;;
52470;SDS011;38382;53.160;7.026;2023-03-01T08:32:40;118.72;;;24.77;;
52470;SDS011;38382;53.160;7.026;2023-03-01T08:35:06;138.70;;;23.42;;
52470;SDS011;38382;53.160;7.026;2023-03-01T08:37:32;155.65;;;23.45;;
52470;SDS011;38382;53.160;7.026;2023-03-01T08:39:59;186.15;;;24.48;;
52470;SDS011;38382;53.160;7.026;2023-03-01T08:42:25;66.70;;;19.73;;
52470;SDS011;38382;53.160;7.026;2023-03-01T08:44:51;56.72;;;20.42;;
52470;SDS011;38382;53.160;7.026;2023-03-01T08:47:17;43.35;;;19.50;;
52470;SDS011;38382;53.160;7.026;2023-03-01T08:49:43;72.43;;;19.70;;
52470;SDS011;38382;53.160;7.026;2023-03-01T08:52:08;41.13;;;18.00;;
52470;SDS011;38382;53.160;7.026;2023-03-01T08:54:34;66.90;;;20.55;;
52470;SDS011;38382;53.160;7.026;2023-03-01T08:57:03;67.75;;;20.92;;
52470;SDS011;38382;53.160;7.026;2023-03-01T08:59:29;66.30;;;19.45;;
52470;SDS011;38382;53.160;7.026;2023-03-01T09:01:55;51.83;;;18.70;;
52470;SDS011;38382;53.160;7.026;2023-03-01T09:04:21;49.67;;;21.25;;
52470;SDS011;38382;53.160;7.026;2023-03-01T09:06:47;111.80;;;23.08;;
52470;SDS011;38382;53.160;7.026;2023-03-01T09:09:14;58.17;;;19.60;;
52470;SDS011;38382;53.160;7.026;2023-03-01T09:11:41;90.80;;;19.08;;
52470;SDS011;38382;53.160;7.026;2023-03-01T09:14:08;37.67;;;16.35;;
52470;SDS011;38382;53.160;7.026;2023-03-01T09:16:34;110.75;;;18.98;;
52470;SDS011;38382;53.160;7.026;2023-03-01T09:19:01;123.57;;;19.60;;
52470;SDS011;38382;53.160;7.026;2023-03-01T09:21:27;222.82;;;24.35;;
52470;SDS011;38382;53.160;7.026;2023-03-01T09:23:53;98.32;;;19.02;;
52470;SDS011;38382;53.160;7.026;2023-03-01T09:26:22;71.93;;;18.80;;
52470;SDS011;38382;53.160;7.026;2023-03-01T09:28:49;45.17;;;17.90;;
52470;SDS011;38382;53.160;7.026;2023-03-01T09:31:16;54.85;;;17.65;;
52470;SDS011;38382;53.160;7.026;2023-03-01T09:33:45;30.02;;;17.77;;
52470;SDS011;38382;53.160;7.026;2023-03-01T09:36:15;31.50;;;17.30;;
52470;SDS011;38382;53.160;7.026;2023-03-01T09:38:42;29.30;;;16.95;;
52470;SDS011;38382;53.160;7.026;2023-03-01T09:41:09;28.08;;;16.15;;
52470;SDS011;38382;53.160;7.026;2023-03-01T09:43:52;26.55;;;16.02;;
52470;SDS011;38382;53.160;7.026;2023-03-01T09:46:23;27.38;;;16.48;;
52470;SDS011;38382;53.160;7.026;2023-03-01T09:48:52;27.15;;;16.50;;
52470;SDS011;38382;53.160;7.026;2023-03-01T09:51:30;29.60;;;16.73;;
52470;SDS011;38382;53.160;7.026;2023-03-01T09:53:58;28.90;;;16.27;;
52470;SDS011;38382;53.160;7.026;2023-03-01T09:56:34;25.70;;;15.98;;
52470;SDS011;38382;53.160;7.026;2023-03-01T10:07:05;26.75;;;17.25;;
52470;SDS011;38382;53.160;7.026;2023-03-01T10:09:42;30.42;;;17.48;;
52470;SDS011;38382;53.160;7.026;2023-03-01T10:12:11;28.40;;;17.88;;
52470;SDS011;38382;53.160;7.026;2023-03-01T10:14:57;28.48;;;18.20;;
52470;SDS011;38382;53.160;7.026;2023-03-01T10:23:07;29.35;;;18.35;;
52470;SDS011;38382;53.160;7.026;2023-03-01T10:31:24;26.88;;;17.35;;
52470;SDS011;38382;53.160;7.026;2023-03-01T10:34:02;30.88;;;17.58;;
52470;SDS011;38382;53.160;7.026;2023-03-01T10:36:33;26.23;;;17.20;;
52470;SDS011;38382;53.160;7.026;2023-03-01T10:38:59;25.80;;;17.67;;
52470;SDS011;38382;53.160;7.026;2023-03-01T10:41:35;28.52;;;17.67;;
52470;SDS011;38382;53.160;7.026;2023-03-01T10:44:39;29.02;;;18.25;;
52470;SDS011;38382;53.160;7.026;2023-03-01T10:47:12;27.37;;;17.73;;
52470;SDS011;38382;53.160;7.026;2023-03-01T10:49:50;29.90;;;18.85;;
52470;SDS011;38382;53.160;7.026;2023-03-01T10:52:34;31.40;;;18.60;;
52470;SDS011;38382;53.160;7.026;2023-03-01T10:55:21;29.35;;;19.17;;
52470;SDS011;38382;53.160;7.026;2023-03-01T11:00:56;32.03;;;18.02;;
52470;SDS011;38382;53.160;7.026;2023-03-01T11:03:25;27.65;;;16.60;;
52470;SDS011;38382;53.160;7.026;2023-03-01T11:08:40;26.95;;;16.77;;
52470;SDS011;38382;53.160;7.026;2023-03-01T11:16:42;23.85;;;15.10;;
52470;SDS011;38382;53.160;7.026;2023-03-01T11:24:36;23.30;;;16.20;;
52470;SDS011;38382;53.160;7.026;2023-03-01T11:27:17;25.95;;;16.13;;
52470;SDS011;38382;53.160;7.026;2023-03-01T11:29:52;23.48;;;16.75;;
52470;SDS011;38382;53.160;7.026;2023-03-01T11:32:38;28.38;;;17.67;;
52470;SDS011;38382;53.160;7.026;2023-03-01T11:35:27;24.63;;;16.13;;
52470;SDS011;38382;53.160;7.026;2023-03-01T11:40:43;23.55;;;16.60;;
52470;SDS011;38382;53.160;7.026;2023-03-01T11:43:15;21.90;;;15.40;;
52470;SDS011;38382;53.160;7.026;2023-03-01T11:57:13;23.50;;;15.25;;
52470;SDS011;38382;53.160;7.026;2023-03-01T12:05:18;20.77;;;14.82;;
52470;SDS011;38382;53.160;7.026;2023-03-01T12:08:21;21.75;;;15.20;;
52470;SDS011;38382;53.160;7.026;2023-03-01T12:11:11;22.77;;;15.20;;
52470;SDS011;38382;53.160;7.026;2023-03-01T12:13:59;20.30;;;14.73;;
52470;SDS011;38382;53.160;7.026;2023-03-01T12:24:43;20.05;;;14.40;;
52470;SDS011;38382;53.160;7.026;2023-03-01T12:27:22;21.73;;;15.10;;
52470;SDS011;38382;53.160;7.026;2023-03-01T12:39:19;21.17;;;14.70;;
52470;SDS011;38382;53.160;7.026;2023-03-01T12:44:34;21.05;;;15.05;;
52470;SDS011;38382;53.160;7.026;2023-03-01T12:52:40;22.15;;;15.02;;
52470;SDS011;38382;53.160;7.026;2023-03-01T13:01:01;22.73;;;15.88;;
52470;SDS011;38382;53.160;7.026;2023-03-01T13:09:29;21.92;;;15.50;;
52470;SDS011;38382;53.160;7.026;2023-03-01T13:17:47;22.63;;;16.33;;
52470;SDS011;38382;53.160;7.026;2023-03-01T13:20:15;21.60;;;15.23;;
52470;SDS011;38382;53.160;7.026;2023-03-01T13:22:43;23.27;;;16.38;;
52470;SDS011;38382;53.160;7.026;2023-03-01T13:25:17;23.77;;;15.93;;
52470;SDS011;38382;53.160;7.026;2023-03-01T13:27:45;21.45;;;14.65;;
52470;SDS011;38382;53.160;7.026;2023-03-01T13:34:06;22.90;;;14.90;;
52470;SDS011;38382;53.160;7.026;2023-03-01T13:36:08;21.27;;;15.27;;
52470;SDS011;38382;53.160;7.026;2023-03-01T13:46:59;20.15;;;14.45;;
52470;SDS011;38382;53.160;7.026;2023-03-01T13:55:00;19.48;;;14.30;;
52470;SDS011;38382;53.160;7.026;2023-03-01T13:57:32;19.33;;;13.50;;
52470;SDS011;38382;53.160;7.026;2023-03-01T14:00:00;19.60;;;14.63;;
52470;SDS011;38382;53.160;7.026;2023-03-01T14:02:27;17.75;;;13.75;;
52470;SDS011;38382;53.160;7.026;2023-03-01T14:04:56;19.13;;;14.32;;
52470;SDS011;38382;53.160;7.026;2023-03-01T14:07:23;19.30;;;14.00;;
52470;SDS011;38382;53.160;7.026;2023-03-01T14:09:57;19.20;;;14.55;;
52470;SDS011;38382;53.160;7.026;2023-03-01T14:15:27;17.75;;;12.93;;
52470;SDS011;38382;53.160;7.026;2023-03-01T14:20:37;18.40;;;13.85;;
52470;SDS011;38382;53.160;7.026;2023-03-01T14:23:10;18.58;;;13.90;;
52470;SDS011;38382;53.160;7.026;2023-03-01T14:25:38;18.73;;;13.75;;
52470;SDS011;38382;53.160;7.026;2023-03-01T14:28:23;19.70;;;14.10;;
52470;SDS011;38382;53.160;7.026;2023-03-01T14:30:52;19.13;;;13.82;;
52470;SDS011;38382;53.160;7.026;2023-03-01T14:36:05;18.55;;;13.95;;
52470;SDS011;38382;53.160;7.026;2023-03-01T14:38:42;17.35;;;13.35;;
52470;SDS011;38382;53.160;7.026;2023-03-01T14:41:19;18.88;;;13.65;;
52470;SDS011;38382;53.160;7.026;2023-03-01T14:43:50;19.17;;;13.82;;
52470;SDS011;38382;53.160;7.026;2023-03-01T14:46:25;18.80;;;14.30;;
52470;SDS011;38382;53.160;7.026;2023-03-01T14:48:58;18.63;;;14.20;;
52470;SDS011;38382;53.160;7.026;2023-03-01T14:51:29;20.52;;;14.55;;
52470;SDS011;38382;53.160;7.026;2023-03-01T14:53:55;20.38;;;14.40;;
52470;SDS011;38382;53.160;7.026;2023-03-01T14:56:21;21.42;;;14.40;;
52470;SDS011;38382;53.160;7.026;2023-03-01T14:58:50;19.40;;;13.85;;
52470;SDS011;38382;53.160;7.026;2023-03-01T15:01:17;21.33;;;14.15;;
52470;SDS011;38382;53.160;7.026;2023-03-01T15:03:47;20.77;;;15.50;;
52470;SDS011;38382;53.160;7.026;2023-03-01T15:06:14;21.08;;;14.77;;
52470;SDS011;38382;53.160;7.026;2023-03-01T15:08:48;18.65;;;14.20;;
52470;SDS011;38382;53.160;7.026;2023-03-01T15:11:17;18.65;;;13.93;;
52470;SDS011;38382;53.160;7.026;2023-03-01T15:13:50;19.92;;;14.13;;
52470;SDS011;38382;53.160;7.026;2023-03-01T15:16:18;24.23;;;14.93;;
52470;SDS011;38382;53.160;7.026;2023-03-01T15:18:56;20.00;;;14.73;;
52470;SDS011;38382;53.160;7.026;2023-03-01T15:23:57;21.13;;;14.95;;
52470;SDS011;38382;53.160;7.026;2023-03-01T15:26:31;22.10;;;15.20;;
52470;SDS011;38382;53.160;7.026;2023-03-01T15:29:02;21.40;;;14.23;;
52470;SDS011;38382;53.160;7.026;2023-03-01T15:31:32;18.90;;;13.88;;
52470;SDS011;38382;53.160;7.026;2023-03-01T15:34:07;19.45;;;14.50;;
52470;SDS011;38382;53.160;7.026;2023-03-01T15:36:47;21.27;;;14.07;;
52470;SDS011;38382;53.160;7.026;2023-03-01T15:39:49;21.25;;;13.55;;
52470;SDS011;38382;53.160;7.026;2023-03-01T15:42:12;19.48;;;13.38;;
52470;SDS011;38382;53.160;7.026;2023-03-01T15:47:51;18.33;;;13.18;;
52470;SDS011;38382;53.160;7.026;2023-03-01T15:52:51;22.67;;;13.80;;
52470;SDS011;38382;53.160;7.026;2023-03-01T15:55:21;23.77;;;14.35;;
52470;SDS011;38382;53.160;7.026;2023-03-01T15:57:48;20.33;;;12.85;;
52470;SDS011;38382;53.160;7.026;2023-03-01T16:00:15;20.48;;;13.88;;
52470;SDS011;38382;53.160;7.026;2023-03-01T16:02:42;19.73;;;13.63;;
52470;SDS011;38382;53.160;7.026;2023-03-01T16:05:13;19.55;;;13.65;;
52470;SDS011;38382;53.160;7.026;2023-03-01T16:07:52;20.02;;;13.05;;
52470;SDS011;38382;53.160;7.026;2023-03-01T16:10:19;20.02;;;13.40;;
52470;SDS011;38382;53.160;7.026;2023-03-01T16:12:44;16.40;;;11.73;;
52470;SDS011;38382;53.160;7.026;2023-03-01T16:15:14;18.02;;;12.25;;
52470;SDS011;38382;53.160;7.026;2023-03-01T16:17:45;18.13;;;12.30;;
52470;SDS011;38382;53.160;7.026;2023-03-01T16:20:12;17.23;;;13.20;;
52470;SDS011;38382;53.160;7.026;2023-03-01T16:22:41;18.50;;;12.20;;
52470;SDS011;38382;53.160;7.026;2023-03-01T16:25:08;18.77;;;12.95;;
52470;SDS011;38382;53.160;7.026;2023-03-01T16:27:35;19.05;;;12.65;;
52470;SDS011;38382;53.160;7.026;2023-03-01T16:30:01;19.08;;;12.75;;
52470;SDS011;38382;53.160;7.026;2023-03-01T16:32:27;20.63;;;13.27;;
52470;SDS011;38382;53.160;7.026;2023-03-01T16:34:52;18.00;;;12.65;;
52470;SDS011;38382;53.160;7.026;2023-03-01T16:37:18;19.48;;;13.35;;
52470;SDS011;38382;53.160;7.026;2023-03-01T16:39:44;19.08;;;13.25;;
52470;SDS011;38382;53.160;7.026;2023-03-01T16:42:10;19.35;;;13.15;;
52470;SDS011;38382;53.160;7.026;2023-03-01T16:44:35;20.52;;;14.05;;
52470;SDS011;38382;53.160;7.026;2023-03-01T16:47:01;21.08;;;13.95;;
52470;SDS011;38382;53.160;7.026;2023-03-01T16:49:27;19.35;;;13.45;;
52470;SDS011;38382;53.160;7.026;2023-03-01T16:51:53;25.42;;;14.70;;
52470;SDS011;38382;53.160;7.026;2023-03-01T16:54:19;20.05;;;14.27;;
52470;SDS011;38382;53.160;7.026;2023-03-01T16:56:44;24.15;;;14.38;;
52470;SDS011;38382;53.160;7.026;2023-03-01T16:59:10;20.55;;;13.85;;